Terminal Aerodrome Forecast
Issued by NWS Blacksburg, VA

Home | Current Version | Previous Version | Text Only | Print | Product List | Glossary On
Versions: 1 2 3 4 5 6 7 8 9 10 11 12 13 14 15 16 17 18 19 20 21 22 23 24 25 26 27 28 29 30 31 32
000
FTUS41 KRNK 220520
TAFDAN
TAF
KDAN 220520Z 2206/2306 23003KT P6SM VCSH BKN070
      TEMPO 2206/2207 4SM BR
     FM221000 VRB03KT P6SM SCT200
     FM221300 23004KT P6SM SCT130
     FM222100 25005KT P6SM VCTS SCT050CB BKN100
     FM230100 20004KT P6SM BKN100=

USA.gov is the U.S. government's official web portal to all federal, state and local government web resources and services.